Time;durP1;ratioP1;P1;durP2;ratioP2;P2;SDS_P1;SDS_P2;PMS_P1;PMS_P2;Temp;Humidity;BMP_temperature;BMP_pressure;BME280_temperature;BME280_humidity;BME280_pressure;Samples;Min_cycle;Max_cycle;Signal;HPM_P1;HPM_P2
2023/02/12 00:00:26;;;;;;;21.77;14.30;;;4.40;59.50;;;;;;6277262;28;20481;-61
2023/02/12 00:03:29;;;;;;;16.90;13.17;;;4.40;59.40;;;;;;6277060;28;20477;-62
2023/02/12 00:06:32;;;;;;;15.97;13.27;;;4.40;59.20;;;;;;6272685;28;20941;-62
2023/02/12 00:09:37;;;;;;;14.93;11.63;;;4.40;58.90;;;;;;6277129;28;20543;-61
2023/02/12 00:12:40;;;;;;;18.17;13.77;;;4.40;59.10;;;;;;6276573;28;20478;-61
2023/02/12 00:15:43;;;;;;;18.93;12.80;;;4.30;59.40;;;;;;6277259;28;20478;-62
2023/02/12 00:18:47;;;;;;;21.70;14.27;;;4.30;59.60;;;;;;6276730;28;20481;-61
2023/02/12 00:21:50;;;;;;;17.73;11.80;;;4.30;59.70;;;;;;6276705;28;20466;-61
2023/02/12 00:24:55;;;;;;;14.60;12.60;;;4.40;60.00;;;;;;6277116;28;20481;-61
2023/02/12 00:27:58;;;;;;;13.70;12.23;;;4.40;59.90;;;;;;6276571;28;20477;-61
2023/02/12 00:31:05;;;;;;;16.70;12.03;;;4.40;60.00;;;;;;6276682;28;20569;-61
2023/02/12 00:34:11;;;;;;;14.77;12.20;;;4.40;60.60;;;;;;6276389;28;20470;-61
2023/02/12 00:37:14;;;;;;;19.03;16.53;;;4.30;60.70;;;;;;6276944;28;20498;-61
2023/02/12 00:40:19;;;;;;;18.07;13.57;;;4.20;60.80;;;;;;6275843;28;20482;-61
2023/02/12 00:43:22;;;;;;;18.50;13.77;;;4.20;61.40;;;;;;6276597;28;20466;-61
2023/02/12 00:46:26;;;;;;;25.03;14.47;;;4.20;61.50;;;;;;6276456;28;20529;-61
2023/02/12 00:49:32;;;;;;;17.03;13.97;;;4.20;61.60;;;;;;6290179;28;20474;-61
2023/02/12 00:52:36;;;;;;;18.77;13.77;;;4.20;61.80;;;;;;6299878;28;20961;-61
2023/02/12 00:55:41;;;;;;;14.67;12.20;;;4.10;62.00;;;;;;6299940;28;20981;-61
2023/02/12 00:58:44;;;;;;;19.20;13.07;;;4.10;62.30;;;;;;6299758;28;20469;-61
2023/02/12 01:01:47;;;;;;;15.53;13.90;;;4.10;62.20;;;;;;6300027;28;20473;-61
2023/02/12 01:04:50;;;;;;;20.00;12.67;;;4.10;63.40;;;;;;6299929;28;20465;-61
2023/02/12 01:07:55;;;;;;;20.57;14.07;;;4.10;62.60;;;;;;6299582;28;20474;-61
2023/02/12 01:11:02;;;;;;;17.20;15.23;;;4.10;62.70;;;;;;6300301;28;20489;-61
2023/02/12 01:14:05;;;;;;;15.30;12.57;;;4.10;62.60;;;;;;6300720;28;20462;-61
2023/02/12 01:17:09;;;;;;;18.07;13.40;;;4.10;62.50;;;;;;6300971;28;20473;-61
2023/02/12 01:20:16;;;;;;;19.07;13.20;;;4.00;62.70;;;;;;6299845;28;20462;-61
2023/02/12 01:23:19;;;;;;;15.07;11.43;;;4.00;62.90;;;;;;6300594;28;20429;-61
2023/02/12 01:26:24;;;;;;;13.50;12.03;;;3.90;62.80;;;;;;6289228;28;20442;-61
2023/02/12 01:29:27;;;;;;;13.60;11.20;;;3.90;63.00;;;;;;6275389;28;20489;-61
2023/02/12 01:32:30;;;;;;;16.03;11.10;;;3.80;63.40;;;;;;6275754;28;20469;-61
2023/02/12 01:35:33;;;;;;;12.40;10.87;;;3.80;64.40;;;;;;6275391;28;20470;-61
2023/02/12 01:38:37;;;;;;;15.43;10.73;;;3.80;64.10;;;;;;6274832;28;20796;-61
2023/02/12 01:41:43;;;;;;;12.50;9.97;;;3.80;64.40;;;;;;6274933;28;20493;-61
2023/02/12 01:45:32;;;;;;;12.53;10.50;;;3.80;64.40;;;;;;6274648;28;20962;-61
2023/02/12 01:48:39;;;;;;;11.20;9.90;;;3.80;64.40;;;;;;6274678;28;20475;-62
2023/02/12 01:51:44;;;;;;;12.40;9.67;;;3.70;64.60;;;;;;6274359;28;20816;-61
2023/02/12 01:54:48;;;;;;;14.27;10.10;;;3.70;64.90;;;;;;6274780;28;20474;-61
2023/02/12 01:57:53;;;;;;;14.10;10.20;;;3.70;65.20;;;;;;6274360;28;20470;-61
2023/02/12 02:00:56;;;;;;;16.67;10.27;;;3.70;65.50;;;;;;6274814;28;20470;-62
2023/02/12 02:04:02;;;;;;;12.70;9.67;;;3.80;65.80;;;;;;6274340;28;20949;-61
2023/02/12 02:07:08;;;;;;;17.10;11.03;;;3.80;65.90;;;;;;6274617;28;20978;-61
2023/02/12 02:10:11;;;;;;;11.83;8.60;;;3.80;65.80;;;;;;6273601;28;20478;-61
2023/02/12 02:16:39;;;;;;;13.73;10.00;;;3.70;66.50;;;;;;6264621;28;20958;-60
2023/02/12 02:20:01;;;;;;;12.23;8.93;;;3.40;67.50;;;;;;6274052;28;20490;-61
2023/02/12 02:23:46;;;;;;;10.70;8.70;;;3.40;67.80;;;;;;6273888;28;20462;-61
2023/02/12 02:27:16;;;;;;;12.10;10.00;;;3.30;68.00;;;;;;6258349;28;20481;-61
2023/02/12 02:30:35;;;;;;;12.83;9.73;;;3.30;68.50;;;;;;6273134;28;20474;-61
2023/02/12 02:33:41;;;;;;;14.50;9.83;;;3.40;68.50;;;;;;6272873;28;20474;-61
2023/02/12 02:36:50;;;;;;;10.80;9.10;;;3.40;68.50;;;;;;6273256;28;20772;-61
2023/02/12 02:40:09;;;;;;;11.70;7.73;;;3.40;68.60;;;;;;6272875;28;20838;-61
2023/02/12 02:43:18;;;;;;;10.23;8.20;;;3.40;68.60;;;;;;6273111;28;20462;-61
2023/02/12 02:46:27;;;;;;;10.83;8.63;;;3.40;68.70;;;;;;6273674;28;20474;-61
2023/02/12 02:49:39;;;;;;;11.37;8.50;;;3.40;69.00;;;;;;6273570;28;20485;-61
2023/02/12 02:52:49;;;;;;;12.07;8.33;;;3.30;68.90;;;;;;6273456;28;20490;-61
2023/02/12 02:55:54;;;;;;;12.07;8.50;;;3.30;69.60;;;;;;6274067;28;20474;-62
2023/02/12 02:59:02;;;;;;;11.20;8.77;;;3.40;69.80;;;;;;6273628;28;20565;-61
2023/02/12 03:02:12;;;;;;;11.47;9.20;;;3.40;69.80;;;;;;6273186;28;20476;-62
2023/02/12 03:05:20;;;;;;;11.80;8.73;;;3.40;69.80;;;;;;6277636;28;20516;-61
2023/02/12 03:08:27;;;;;;;12.50;9.50;;;3.40;70.10;;;;;;6278891;28;20458;-61
2023/02/12 03:11:33;;;;;;;15.43;9.47;;;3.40;70.00;;;;;;6278888;28;20488;-61
2023/02/12 03:14:40;;;;;;;10.90;7.67;;;3.40;70.50;;;;;;6278711;28;20474;-61
2023/02/12 03:17:48;;;;;;;11.37;8.47;;;3.40;70.50;;;;;;6269512;28;20481;-62
2023/02/12 03:20:55;;;;;;;9.13;7.60;;;3.50;70.70;;;;;;6278640;28;20478;-61
2023/02/12 03:24:04;;;;;;;8.73;7.83;;;3.50;70.20;;;;;;6278577;28;20474;-61
2023/02/12 03:27:10;;;;;;;11.57;7.53;;;3.50;70.10;;;;;;6278165;28;20466;-61
2023/02/12 03:30:14;;;;;;;10.80;7.97;;;3.50;70.80;;;;;;6278189;28;20474;-61
2023/02/12 03:33:29;;;;;;;12.27;8.37;;;3.40;70.00;;;;;;6277697;28;20474;-61
2023/02/12 03:36:39;;;;;;;11.17;8.20;;;3.40;70.10;;;;;;6278372;28;20474;-62
2023/02/12 03:39:49;;;;;;;11.87;8.13;;;3.40;70.00;;;;;;6277943;28;20474;-61
2023/02/12 03:43:00;;;;;;;11.73;8.40;;;3.50;70.10;;;;;;6278017;28;20474;-61
2023/02/12 03:46:13;;;;;;;10.00;7.97;;;3.50;70.10;;;;;;6277667;28;20969;-61
2023/02/12 03:49:24;;;;;;;10.13;8.23;;;3.50;70.20;;;;;;6277585;28;21047;-62
2023/02/12 03:52:28;;;;;;;12.50;8.40;;;3.40;69.80;;;;;;6277266;28;20543;-62
2023/02/12 03:55:34;;;;;;;10.33;8.50;;;3.40;69.80;;;;;;6277722;28;20942;-62
2023/02/12 03:58:39;;;;;;;12.20;8.43;;;3.30;69.90;;;;;;6277380;28;20483;-62
2023/02/12 04:01:43;;;;;;;9.70;8.57;;;3.30;71.20;;;;;;6277592;28;20484;-62
2023/02/12 04:04:48;;;;;;;11.40;8.83;;;3.20;70.70;;;;;;6277183;28;20935;-62
2023/02/12 04:07:53;;;;;;;12.20;9.30;;;3.10;70.70;;;;;;6277698;28;20485;-62
2023/02/12 04:11:06;;;;;;;10.67;9.53;;;3.10;71.30;;;;;;6277231;28;20789;-61
2023/02/12 04:14:17;;;;;;;10.87;8.30;;;3.10;71.80;;;;;;6276747;28;20482;-61
2023/02/12 04:17:29;;;;;;;13.83;8.80;;;3.10;72.30;;;;;;6275992;28;20453;-62
2023/02/12 04:20:42;;;;;;;12.87;8.73;;;2.90;72.60;;;;;;6272430;28;20930;-62
2023/02/12 04:23:50;;;;;;;8.87;7.97;;;2.90;72.90;;;;;;6276953;28;20827;-62
2023/02/12 04:26:58;;;;;;;11.43;8.23;;;2.90;73.80;;;;;;6277072;28;20474;-62
2023/02/12 04:30:09;;;;;;;12.07;8.80;;;2.90;74.10;;;;;;6276547;28;20809;-62
2023/02/12 04:33:17;;;;;;;9.67;8.07;;;2.80;74.40;;;;;;6276876;28;20558;-62
2023/02/12 04:36:26;;;;;;;11.40;8.03;;;2.70;74.80;;;;;;6277026;28;20474;-62
2023/02/12 04:39:33;;;;;;;11.60;8.53;;;2.60;75.00;;;;;;6276887;28;20481;-62
2023/02/12 04:42:42;;;;;;;12.83;10.30;;;2.60;75.60;;;;;;6276347;28;20970;-62
2023/02/12 04:45:45;;;;;;;11.50;8.80;;;2.60;75.80;;;;;;6276512;28;21225;-62
2023/02/12 04:48:53;;;;;;;11.70;9.50;;;2.60;75.80;;;;;;6276424;28;20482;-62
2023/02/12 04:51:58;;;;;;;16.53;9.73;;;2.70;76.20;;;;;;6276463;28;20474;-62
2023/02/12 04:55:01;;;;;;;11.50;9.90;;;2.70;76.40;;;;;;6276383;28;20477;-62
2023/02/12 04:58:04;;;;;;;12.67;10.53;;;2.70;76.30;;;;;;6276041;28;20477;-62
2023/02/12 05:01:08;;;;;;;13.97;10.87;;;2.80;76.50;;;;;;6276316;28;20481;-62
2023/02/12 05:04:14;;;;;;;13.90;10.17;;;2.80;76.50;;;;;;6276221;28;20545;-62
2023/02/12 05:07:18;;;;;;;11.03;8.77;;;2.90;76.40;;;;;;6276498;28;20485;-62
2023/02/12 05:10:22;;;;;;;13.73;9.23;;;2.80;76.30;;;;;;6275587;28;20958;-61
2023/02/12 05:13:25;;;;;;;10.00;9.00;;;2.80;75.80;;;;;;6276095;28;20492;-61
2023/02/12 05:16:28;;;;;;;11.07;8.80;;;2.80;76.30;;;;;;6275692;28;20528;-61
2023/02/12 05:19:31;;;;;;;11.23;9.60;;;2.80;76.10;;;;;;6275752;28;20480;-61
2023/02/12 05:22:36;;;;;;;13.90;9.40;;;2.80;76.20;;;;;;6275821;28;20490;-62
2023/02/12 05:25:39;;;;;;;11.30;9.30;;;2.90;76.20;;;;;;6274815;28;20473;-61
2023/02/12 05:28:42;;;;;;;10.37;8.90;;;2.90;76.00;;;;;;6273995;28;20809;-62
2023/02/12 05:31:46;;;;;;;11.97;9.53;;;3.00;76.10;;;;;;6275084;28;20485;-62
2023/02/12 05:34:49;;;;;;;11.80;10.47;;;3.00;76.10;;;;;;6275184;28;20839;-62
2023/02/12 05:37:54;;;;;;;11.73;10.53;;;3.10;75.80;;;;;;6275151;28;20784;-63
2023/02/12 05:41:02;;;;;;;14.20;9.50;;;3.10;75.70;;;;;;6275054;28;20786;-62
2023/02/12 05:44:06;;;;;;;10.80;8.77;;;3.10;75.60;;;;;;6275063;28;20471;-62
2023/02/12 05:47:09;;;;;;;10.50;9.37;;;3.20;75.80;;;;;;6274991;28;20802;-62
2023/02/12 05:50:12;;;;;;;12.80;9.87;;;3.20;75.70;;;;;;6274867;28;20798;-61
2023/02/12 05:53:17;;;;;;;13.03;10.30;;;3.20;75.80;;;;;;6274798;28;20484;-61
2023/02/12 05:56:22;;;;;;;12.20;9.97;;;3.30;75.60;;;;;;6275151;28;20450;-62
2023/02/12 05:59:26;;;;;;;14.60;11.13;;;3.30;75.50;;;;;;6274588;28;20458;-62
2023/02/12 06:02:29;;;;;;;13.23;10.50;;;3.30;75.60;;;;;;6273884;28;20779;-61
2023/02/12 06:05:32;;;;;;;16.43;11.13;;;3.30;75.90;;;;;;6274334;28;20450;-61
2023/02/12 06:08:37;;;;;;;13.63;10.77;;;3.30;75.90;;;;;;6273275;28;20470;-61
2023/02/12 06:11:40;;;;;;;15.00;10.30;;;3.30;75.50;;;;;;6274123;28;20980;-61
2023/02/12 06:14:44;;;;;;;11.60;9.47;;;3.40;75.50;;;;;;6274197;28;20553;-63
2023/02/12 06:17:47;;;;;;;11.90;9.30;;;3.40;75.50;;;;;;6274512;28;20500;-61
2023/02/12 06:20:50;;;;;;;11.40;9.23;;;3.40;75.20;;;;;;6274660;28;20489;-61
2023/02/12 06:23:55;;;;;;;12.87;9.40;;;3.50;74.50;;;;;;6275541;28;20470;-62
2023/02/12 06:26:58;;;;;;;11.50;8.83;;;3.50;74.50;;;;;;6274387;28;20508;-61
2023/02/12 06:30:01;;;;;;;16.47;10.40;;;3.50;74.40;;;;;;6265086;28;20488;-62
2023/02/12 06:33:04;;;;;;;11.10;9.63;;;3.50;74.40;;;;;;6274271;28;20508;-61
2023/02/12 06:36:07;;;;;;;10.00;8.17;;;3.60;74.40;;;;;;6274271;28;20797;-62
2023/02/12 06:39:13;;;;;;;9.63;8.30;;;3.70;74.20;;;;;;6273144;28;20481;-62
2023/02/12 06:42:17;;;;;;;11.67;9.30;;;3.80;74.10;;;;;;6274278;28;20478;-61
2023/02/12 06:45:21;;;;;;;10.27;9.27;;;3.90;74.10;;;;;;6273698;28;20535;-61
2023/02/12 06:48:24;;;;;;;10.30;9.20;;;4.00;74.00;;;;;;6273569;28;20490;-61
2023/02/12 06:51:28;;;;;;;12.17;9.13;;;4.00;73.90;;;;;;6275028;28;20535;-61
2023/02/12 06:54:33;;;;;;;16.03;10.07;;;4.20;74.20;;;;;;6274784;28;20470;-62
2023/02/12 06:57:36;;;;;;;14.50;10.13;;;4.20;73.80;;;;;;6274775;28;20567;-62
2023/02/12 07:00:39;;;;;;;11.63;9.33;;;4.30;73.80;;;;;;6274412;28;20485;-61
2023/02/12 07:03:44;;;;;;;14.23;10.67;;;4.30;73.80;;;;;;6274511;28;20466;-61
2023/02/12 07:06:47;;;;;;;14.17;10.43;;;4.30;73.70;;;;;;6274655;28;20474;-61
2023/02/12 07:09:52;;;;;;;16.47;10.40;;;4.40;74.00;;;;;;6274050;28;20500;-61
2023/02/12 07:12:55;;;;;;;13.70;10.60;;;4.50;73.90;;;;;;6273382;28;20592;-61
2023/02/12 07:15:58;;;;;;;11.17;10.03;;;4.50;74.30;;;;;;6273323;28;20481;-61
2023/02/12 07:19:01;;;;;;;15.40;10.60;;;4.50;74.70;;;;;;6273473;28;20474;-61
2023/02/12 07:22:05;;;;;;;10.50;9.37;;;4.50;75.00;;;;;;6273949;28;20589;-61
2023/02/12 07:25:09;;;;;;;14.20;10.67;;;4.60;75.50;;;;;;6273644;28;20458;-62
2023/02/12 07:28:12;;;;;;;12.40;9.83;;;4.60;75.50;;;;;;6273741;28;20474;-62
2023/02/12 07:31:18;;;;;;;11.83;9.17;;;4.70;75.60;;;;;;6273609;28;20814;-61
2023/02/12 07:34:22;;;;;;;9.40;7.83;;;4.80;75.60;;;;;;6269612;28;20528;-61
2023/02/12 07:37:25;;;;;;;12.17;8.40;;;5.10;75.50;;;;;;6274092;28;20824;-62
2023/02/12 07:40:29;;;;;;;13.23;9.60;;;5.40;74.70;;;;;;6273323;28;20796;-62
2023/02/12 07:43:33;;;;;;;9.13;8.10;;;5.60;72.90;;;;;;6273773;28;20575;-60
2023/02/12 07:46:38;;;;;;;9.83;8.43;;;5.70;72.10;;;;;;6273464;28;20470;-61
2023/02/12 07:49:41;;;;;;;10.30;8.97;;;5.80;71.90;;;;;;6274890;28;20794;-61
2023/02/12 07:52:44;;;;;;;12.90;9.00;;;5.80;71.40;;;;;;6278584;28;20466;-61
2023/02/12 07:55:49;;;;;;;10.53;8.80;;;5.80;72.00;;;;;;6277587;28;20486;-61
2023/02/12 07:58:53;;;;;;;10.80;9.23;;;5.70;71.80;;;;;;6277605;28;20481;-62
2023/02/12 08:01:57;;;;;;;11.30;9.63;;;5.70;72.00;;;;;;6277321;28;20470;-62
2023/02/12 08:05:00;;;;;;;10.70;9.53;;;5.80;71.60;;;;;;6278471;28;20531;-62
2023/02/12 08:08:04;;;;;;;12.63;9.57;;;6.00;71.60;;;;;;6278178;28;20478;-62
2023/02/12 08:11:10;;;;;;;13.97;10.90;;;6.20;71.80;;;;;;6278874;28;20482;-62
2023/02/12 08:14:15;;;;;;;18.30;13.03;;;6.40;71.00;;;;;;6277856;28;20949;-62
2023/02/12 08:17:18;;;;;;;31.67;19.80;;;6.70;70.50;;;;;;6277926;28;20450;-62
2023/02/12 08:20:21;;;;;;;22.80;12.80;;;7.00;69.80;;;;;;6278049;28;20570;-62
2023/02/12 08:23:25;;;;;;;20.53;12.20;;;7.30;68.60;;;;;;6277567;28;20778;-62
2023/02/12 08:26:31;;;;;;;19.30;10.60;;;7.60;67.40;;;;;;6277799;28;20442;-62
2023/02/12 08:29:34;;;;;;;15.67;10.33;;;8.00;66.10;;;;;;6278017;28;20473;-62
2023/02/12 08:32:37;;;;;;;13.93;10.20;;;8.40;64.80;;;;;;6277998;28;20470;-62
2023/02/12 08:35:40;;;;;;;11.80;9.83;;;8.70;62.90;;;;;;6273012;28;20469;-62
2023/02/12 08:38:45;;;;;;;12.17;9.47;;;8.80;61.60;;;;;;6277677;28;20469;-62
2023/02/12 08:41:50;;;;;;;19.00;15.37;;;8.70;60.50;;;;;;6277609;28;20481;-62
2023/02/12 08:44:54;;;;;;;27.87;20.23;;;8.70;60.50;;;;;;6278000;28;20503;-62
2023/02/12 08:47:57;;;;;;;40.70;30.90;;;8.70;60.50;;;;;;6277448;28;20476;-61
2023/02/12 08:51:08;;;;;;;20.70;13.67;;;8.60;60.30;;;;;;6277670;28;20493;-62
2023/02/12 08:54:17;;;;;;;18.40;12.17;;;8.50;60.70;;;;;;6276927;28;20474;-62
2023/02/12 08:57:21;;;;;;;41.17;20.70;;;8.50;60.30;;;;;;6277288;28;20993;-61
2023/02/12 09:00:25;;;;;;;39.20;24.20;;;8.70;60.80;;;;;;6276758;28;20489;-62
2023/02/12 09:03:28;;;;;;;42.90;28.47;;;8.90;61.10;;;;;;6276222;28;20607;-62
2023/02/12 09:06:34;;;;;;;31.40;24.40;;;9.20;59.80;;;;;;6276657;28;20485;-62
2023/02/12 09:09:38;;;;;;;17.80;14.23;;;9.60;58.90;;;;;;6276895;28;20486;-62
2023/02/12 09:12:42;;;;;;;20.20;14.10;;;10.00;56.00;;;;;;6277360;28;20481;-62
2023/02/12 09:15:45;;;;;;;18.60;16.60;;;10.10;54.50;;;;;;6276488;28;20548;-62
2023/02/12 09:18:49;;;;;;;31.23;25.57;;;10.20;53.90;;;;;;6276485;28;20463;-62
2023/02/12 09:21:53;;;;;;;25.07;22.40;;;10.90;53.80;;;;;;6272484;28;20474;-62
2023/02/12 09:24:58;;;;;;;14.33;12.63;;;13.20;52.10;;;;;;6275600;28;20473;-62
2023/02/12 09:28:03;;;;;;;11.30;10.20;;;16.70;44.20;;;;;;6271405;28;20481;-62
2023/02/12 09:31:07;;;;;;;20.17;18.10;;;20.70;36.00;;;;;;6276343;28;20481;-63
2023/02/12 09:34:10;;;;;;;15.77;13.60;;;24.20;29.20;;;;;;6275930;28;20231;-62
2023/02/12 09:37:14;;;;;;;19.20;17.50;;;24.50;25.70;;;;;;6276121;28;20223;-62
2023/02/12 09:40:19;;;;;;;18.50;16.23;;;22.20;26.10;;;;;;6276148;28;20227;-62
2023/02/12 09:43:32;;;;;;;27.87;23.57;;;19.90;27.80;;;;;;6275427;28;20604;-62
2023/02/12 09:46:41;;;;;;;21.43;18.90;;;18.10;30.00;;;;;;6275590;28;20223;-62
2023/02/12 09:50:12;;;;;;;19.30;17.20;;;16.10;32.60;;;;;;6274889;28;20474;-62
2023/02/12 09:53:18;;;;;;;21.17;18.90;;;15.30;34.50;;;;;;6272743;28;20465;-62
2023/02/12 09:56:24;;;;;;;17.70;15.90;;;17.90;34.60;;;;;;6274997;28;20481;-62
2023/02/12 09:59:36;;;;;;;18.90;17.17;;;20.20;30.40;;;;;;6275254;28;20234;-62
2023/02/12 10:02:40;;;;;;;17.13;15.43;;;23.20;26.80;;;;;;6277183;28;20232;-63
2023/02/12 10:05:48;;;;;;;16.03;14.60;;;26.00;23.70;;;;;;6279546;28;20219;-62
2023/02/12 10:09:04;;;;;;;13.73;12.53;;;28.50;22.50;;;;;;6282756;28;20246;-62
2023/02/12 10:12:15;;;;;;;12.48;11.40;;;32.20;18.70;;;;;;6276948;28;20231;-62
2023/02/12 10:15:34;;;;;;;10.77;9.85;;;35.10;15.50;;;;;;6274649;28;20238;-62
2023/02/12 10:18:56;;;;;;;13.50;12.30;;;36.70;14.00;;;;;;6274905;28;20223;-63
2023/02/12 10:22:10;;;;;;;10.00;9.10;;;38.00;12.50;;;;;;6275061;28;20235;-63
2023/02/12 10:25:24;;;;;;;9.98;9.25;;;38.40;11.70;;;;;;6274781;28;20209;-63
2023/02/12 10:28:37;;;;;;;11.65;10.68;;;39.40;11.60;;;;;;6274451;28;20231;-63
2023/02/12 10:31:45;;;;;;;4.65;4.10;;;40.20;11.20;;;;;;6274455;28;20237;-63
2023/02/12 10:34:51;;;;;;;7.05;6.55;;;40.90;11.20;;;;;;6274640;28;20696;-63
2023/02/12 10:37:59;;;;;;;4.72;4.32;;;41.80;10.50;;;;;;6275295;28;20234;-63
2023/02/12 10:41:02;;;;;;;4.95;4.55;;;42.00;10.50;;;;;;6274192;28;20236;-63
2023/02/12 10:44:07;;;;;;;5.88;4.82;;;42.80;10.30;;;;;;6274774;28;20305;-62
2023/02/12 10:47:18;;;;;;;12.73;11.80;;;42.20;10.30;;;;;;6274450;28;20228;-62
2023/02/12 10:50:34;;;;;;;13.70;12.70;;;41.60;9.40;;;;;;6274244;28;20239;-62
2023/02/12 10:53:39;;;;;;;12.35;11.45;;;41.00;9.80;;;;;;6274677;28;20235;-62
2023/02/12 10:56:43;;;;;;;11.73;10.82;;;41.70;9.70;;;;;;6274192;28;20231;-62
2023/02/12 10:59:48;;;;;;;12.38;11.30;;;42.10;9.60;;;;;;6274245;28;20237;-62
2023/02/12 11:03:06;;;;;;;13.02;11.93;;;42.10;9.20;;;;;;6274235;28;20238;-62
2023/02/12 11:06:15;;;;;;;15.55;14.30;;;40.90;9.20;;;;;;6274223;28;20231;-63
2023/02/12 11:09:29;;;;;;;14.57;13.30;;;40.60;9.40;;;;;;6273956;28;20232;-62
2023/02/12 11:12:35;;;;;;;12.45;11.35;;;39.40;9.70;;;;;;6273878;28;20257;-62
2023/02/12 11:15:48;;;;;;;10.63;9.80;;;36.30;10.40;;;;;;6274121;28;20230;-63
2023/02/12 11:19:01;;;;;;;9.75;8.35;;;35.10;11.20;;;;;;6274057;28;20315;-63
2023/02/12 11:22:07;;;;;;;9.23;8.52;;;33.30;12.50;;;;;;6273883;28;20232;-62
2023/02/12 11:25:16;;;;;;;10.02;9.15;;;33.90;12.90;;;;;;6276363;28;20215;-62
2023/02/12 11:28:20;;;;;;;8.15;7.45;;;36.80;11.90;;;;;;6269547;28;20227;-63
2023/02/12 11:31:28;;;;;;;8.63;7.93;;;37.40;11.10;;;;;;6280125;28;20246;-63
2023/02/12 11:34:34;;;;;;;7.40;6.80;;;38.30;11.40;;;;;;6279047;28;20561;-63
2023/02/12 11:37:42;;;;;;;6.85;6.25;;;38.60;10.80;;;;;;6278384;28;20244;-63
2023/02/12 11:40:47;;;;;;;6.40;5.80;;;38.90;10.70;;;;;;6278223;28;20544;-63
2023/02/12 11:43:53;;;;;;;6.15;5.65;;;37.70;11.30;;;;;;6278717;28;20554;-63
2023/02/12 11:47:00;;;;;;;5.85;5.43;;;38.10;11.70;;;;;;6278534;28;20238;-63
2023/02/12 11:50:18;;;;;;;5.40;5.00;;;37.00;11.80;;;;;;6278534;28;20223;-62
2023/02/12 11:53:25;;;;;;;6.63;5.75;;;34.20;13.10;;;;;;6278845;28;20573;-62
2023/02/12 11:56:41;;;;;;;7.05;5.70;;;33.30;14.30;;;;;;6278311;28;20312;-62
2023/02/12 11:59:47;;;;;;;6.93;6.10;;;36.10;13.50;;;;;;6278961;28;20687;-63
2023/02/12 12:02:57;;;;;;;9.25;8.55;;;38.80;11.80;;;;;;6278119;28;20547;-63
2023/02/12 12:06:08;;;;;;;15.20;13.70;;;36.70;12.10;;;;;;6278230;28;20873;-63
2023/02/12 12:09:17;;;;;;;6.88;6.28;;;35.10;12.90;;;;;;6278832;28;20234;-62
2023/02/12 12:12:25;;;;;;;5.63;4.80;;;34.30;13.30;;;;;;6278440;28;20224;-63
2023/02/12 12:22:44;;;;;;;8.18;7.30;;;33.10;14.20;;;;;;6277680;28;20227;-63
2023/02/12 12:25:52;;;;;;;7.55;6.93;;;33.90;14.20;;;;;;6277654;28;20228;-63
2023/02/12 12:29:05;;;;;;;8.05;7.32;;;35.50;13.00;;;;;;6276786;28;20258;-62
2023/02/12 12:32:14;;;;;;;16.90;15.70;;;37.40;12.20;;;;;;6277708;28;20241;-62
2023/02/12 12:35:22;;;;;;;4.88;4.50;;;38.40;11.70;;;;;;6278350;28;20231;-62
2023/02/12 12:38:38;;;;;;;5.88;5.38;;;38.40;11.50;;;;;;6280256;28;20236;-62
2023/02/12 12:42:07;;;;;;;5.20;4.80;;;39.50;11.50;;;;;;6278104;28;20234;-63
2023/02/12 12:45:24;;;;;;;4.70;4.40;;;41.10;10.50;;;;;;6277808;28;20655;-63
2023/02/12 12:48:44;;;;;;;2.53;2.33;;;37.90;11.10;;;;;;6279446;28;20234;-63
2023/02/12 12:52:05;;;;;;;2.20;0.95;;;36.30;12.90;;;;;;6278443;28;20361;-63
2023/02/12 12:55:31;;;;;;;1.38;0.98;;;37.80;12.60;;;;;;6277297;28;20236;-63
2023/02/12 12:58:50;;;;;;;2.78;1.45;;;38.10;11.80;;;;;;6276858;28;20322;-63
2023/02/12 13:02:16;;;;;;;1.50;0.88;;;37.40;12.50;;;;;;6276976;28;20243;-62
2023/02/12 13:05:53;;;;;;;2.80;1.27;;;34.70;12.90;;;;;;6276773;28;20227;-62
2023/02/12 13:09:16;;;;;;;0.87;0.77;;;31.00;15.20;;;;;;6270484;28;20246;-62
2023/02/12 13:12:48;;;;;;;1.50;1.33;;;27.40;17.60;;;;;;6276751;28;20235;-62
2023/02/12 13:15:57;;;;;;;2.93;2.73;;;25.40;19.60;;;;;;6277056;28;20227;-62
2023/02/12 13:19:06;;;;;;;1.30;1.20;;;23.90;20.90;;;;;;6276191;28;20691;-62
2023/02/12 13:22:17;;;;;;;2.43;1.00;;;22.60;22.10;;;;;;6276243;28;20306;-62
2023/02/12 13:25:27;;;;;;;1.83;1.07;;;21.50;23.10;;;;;;6276591;28;20244;-62
2023/02/12 13:28:37;;;;;;;16.23;14.60;;;20.50;24.20;;;;;;6276394;28;20686;-61
2023/02/12 13:31:48;;;;;;;1.60;1.50;;;22.30;24.40;;;;;;6275737;28;20234;-62
2023/02/12 13:34:54;;;;;;;2.27;2.07;;;26.60;21.20;;;;;;6270247;28;20238;-62
2023/02/12 13:38:00;;;;;;;1.90;1.80;;;30.00;18.00;;;;;;6276061;28;20526;-62
2023/02/12 13:41:08;;;;;;;1.57;1.33;;;31.40;16.40;;;;;;6276000;28;20242;-63
2023/02/12 13:44:30;;;;;;;1.53;1.10;;;31.70;15.70;;;;;;6275675;28;20229;-62
2023/02/12 13:47:46;;;;;;;1.65;1.05;;;30.70;16.50;;;;;;6275607;28;20234;-62
2023/02/12 13:51:01;;;;;;;1.20;1.10;;;30.80;16.10;;;;;;6275355;28;20234;-62
2023/02/12 13:54:14;;;;;;;1.20;0.90;;;29.90;16.60;;;;;;6275690;28;20546;-62
2023/02/12 13:57:20;;;;;;;1.50;0.93;;;28.80;17.00;;;;;;6275394;28;20231;-62
2023/02/12 14:00:58;;;;;;;2.10;1.23;;;26.40;18.30;;;;;;6275449;28;20551;-62
2023/02/12 14:04:28;;;;;;;1.33;1.23;;;23.90;20.40;;;;;;6275285;28;20230;-62
2023/02/12 14:07:43;;;;;;;0.97;0.70;;;22.90;22.20;;;;;;6275152;28;20738;-62
2023/02/12 14:11:04;;;;;;;1.00;0.60;;;25.30;21.20;;;;;;6275259;28;20238;-62
2023/02/12 14:14:09;;;;;;;0.87;0.80;;;27.10;19.60;;;;;;6275110;28;20231;-62
2023/02/12 14:17:52;;;;;;;1.00;0.77;;;27.00;19.30;;;;;;6274777;28;20242;-63
2023/02/12 14:21:42;;;;;;;0.90;0.70;;;25.90;19.70;;;;;;6274897;28;20314;-63
2023/02/12 14:24:54;;;;;;;0.93;0.83;;;24.50;20.50;;;;;;6274106;28;20663;-63
2023/02/12 14:28:07;;;;;;;2.00;1.00;;;22.80;21.50;;;;;;6274502;28;20220;-62
2023/02/12 14:31:42;;;;;;;1.87;1.77;;;21.40;22.70;;;;;;6274460;28;20241;-62
2023/02/12 14:34:51;;;;;;;0.70;0.70;;;20.30;24.00;;;;;;6274352;28;20525;-62
2023/02/12 14:37:56;;;;;;;1.00;0.80;;;19.60;24.60;;;;;;6269461;28;20289;-62
2023/02/12 14:41:36;;;;;;;1.13;0.97;;;19.00;25.50;;;;;;6274503;28;20255;-63
2023/02/12 14:44:46;;;;;;;1.10;0.70;;;18.30;26.00;;;;;;6274683;28;20227;-62
2023/02/12 14:47:52;;;;;;;2.00;1.00;;;17.70;26.80;;;;;;6274330;28;20231;-61
2023/02/12 14:50:59;;;;;;;1.00;0.90;;;17.20;27.30;;;;;;6273915;28;20235;-61
2023/02/12 14:54:14;;;;;;;0.97;0.60;;;17.00;27.80;;;;;;6274296;28;20494;-61
2023/02/12 14:57:28;;;;;;;1.50;0.93;;;16.50;28.00;;;;;;6274216;28;20557;-62
2023/02/12 15:00:37;;;;;;;1.23;0.90;;;16.20;28.60;;;;;;6272537;28;20493;-62
2023/02/12 15:03:49;;;;;;;0.80;0.63;;;15.80;29.00;;;;;;6273729;28;20466;-62
2023/02/12 15:07:06;;;;;;;2.10;0.70;;;15.60;29.30;;;;;;6274116;28;20476;-62
2023/02/12 15:10:18;;;;;;;1.27;0.97;;;15.40;30.00;;;;;;6273784;28;20574;-62
2023/02/12 15:13:29;;;;;;;1.70;1.60;;;15.20;30.30;;;;;;6274340;28;20452;-62
2023/02/12 15:16:46;;;;;;;1.33;0.83;;;15.00;30.50;;;;;;6274082;28;20601;-61
2023/02/12 15:19:56;;;;;;;0.83;0.70;;;14.80;30.70;;;;;;6273944;28;20477;-62
2023/02/12 15:23:24;;;;;;;0.60;0.50;;;14.60;31.20;;;;;;6274089;28;20547;-62
2023/02/12 15:26:34;;;;;;;0.77;0.70;;;14.40;31.20;;;;;;6272977;28;21087;-61
2023/02/12 15:29:42;;;;;;;1.57;0.83;;;14.30;31.70;;;;;;6273543;28;20892;-62
2023/02/12 15:32:47;;;;;;;1.83;0.90;;;14.20;32.20;;;;;;6273457;28;20470;-62
2023/02/12 15:35:53;;;;;;;1.13;0.90;;;14.00;32.50;;;;;;6273839;28;20585;-62
2023/02/12 15:39:03;;;;;;;2.23;0.80;;;13.80;32.70;;;;;;6273355;28;21002;-61
2023/02/12 15:42:30;;;;;;;0.80;0.73;;;13.60;33.00;;;;;;6275381;28;20944;-61
2023/02/12 15:45:37;;;;;;;0.97;0.80;;;13.50;33.50;;;;;;6269594;28;20470;-61
2023/02/12 15:48:42;;;;;;;1.07;1.07;;;13.40;33.80;;;;;;6276871;28;20958;-62
2023/02/12 15:51:46;;;;;;;2.03;1.60;;;13.30;34.20;;;;;;6281828;28;21001;-62
2023/02/12 15:54:53;;;;;;;1.67;1.17;;;13.20;34.60;;;;;;6274433;28;20540;-62
2023/02/12 15:57:59;;;;;;;1.90;1.20;;;13.10;34.80;;;;;;6273879;28;20564;-62
2023/02/12 16:01:07;;;;;;;1.53;1.30;;;13.10;34.90;;;;;;6273464;28;20549;-62
2023/02/12 16:04:12;;;;;;;1.40;1.30;;;13.00;35.10;;;;;;6273992;28;21037;-62
2023/02/12 16:07:18;;;;;;;4.30;4.00;;;12.90;35.40;;;;;;6273655;28;20433;-62
2023/02/12 16:10:26;;;;;;;1.90;1.80;;;12.80;35.70;;;;;;6274540;28;20450;-61
2023/02/12 16:13:34;;;;;;;3.80;3.50;;;12.70;35.80;;;;;;6278015;28;20458;-61
2023/02/12 16:16:44;;;;;;;9.77;8.87;;;12.50;36.00;;;;;;6278324;28;20473;-61
2023/02/12 16:19:55;;;;;;;28.10;25.50;;;12.50;36.30;;;;;;6276554;28;21004;-63
2023/02/12 16:23:06;;;;;;;21.63;19.30;;;12.40;36.50;;;;;;6277568;28;20470;-61
2023/02/12 16:26:18;;;;;;;7.80;7.20;;;12.30;36.70;;;;;;6276413;28;20466;-64